Terminal Aerodrome Forecast
Issued by NWS Cleveland, OH

Home | Current Version | Previous Version | Graphics & Text | Print | Product List | Glossary On
Versions: 1 2 3 4 5 6 7 8 9 10 11 12 13 14 15 16
000
FTUS41 KCLE 282017 AAA
TAFMFD
TAF AMD
KMFD 282017Z 2820/2918 22010KT P6SM VCTS SCT035CB BKN250
      TEMPO 2820/2821 25015G25KT 5SM -TSRA BR BKN035CB
     FM290800 21005KT 4SM BR BKN250
     FM291300 20007KT P6SM BKN250=

USA.gov is the U.S. government's official web portal to all federal, state and local government web resources and services.